Terminal Aerodrome Forecast
Issued by NWS

Home | Current Version | Previous Version | Text Only | Print | Product List | Glossary On
Versions: 1 2 3 4 5 6 7 8 9 10 11 12
000
FTUS45 KBOI 171734
TAFTWF
TAF
KTWF 171734Z 1718/1818 17009KT P6SM FEW250
     FM172100 VRB06KT P6SM SCT250
     FM180300 20011KT P6SM FEW250
     FM181300 VRB06KT P6SM FEW250=

USA.gov is the U.S. government's official web portal to all federal, state and local government web resources and services.